This is the latest recevied weather packets stored in our database for station/object N5SOR-1. If no packets are shown the sender has not sent any weather packets the latest 10 day(s).
| Time | Temp. | Humidity | Pressure | Rain* | Wind** | Luminosity | Snow |
|---|---|---|---|---|---|---|---|
| 1777201298 | 20.56° C | 18% | 1006.1 hPa | 0 mm | - | 0 W/m² | - |
| 1777200637 | 20.56° C | 18% | 1006.2 hPa | 0 mm | - | 0 W/m² | - |
| 1777199977 | 20.56° C | 18% | 1006.3 hPa | 0 mm | - | 0 W/m² | - |
| 1777199316 | 20.56° C | 19% | 1006.3 hPa | 0 mm | - | 0 W/m² | - |
| 1777198656 | 20° C | 20% | 1006.3 hPa | 0 mm | - | 0 W/m² | - |
| 1777197995 | 20° C | 21% | 1006.1 hPa | 0 mm | - | 0 W/m² | - |
| 1777197335 | 20.56° C | 24% | 1006 hPa | 0 mm | - | 0 W/m² | - |
| 1777196674 | 20.56° C | 29% | 1005.7 hPa | 0 mm | - | 0 W/m² | - |
| 1777195353 | 19.44° C | 47% | 1005.7 hPa | 0 mm | - | 0 W/m² | - |
| 1777194692 | 20° C | 48% | 1005.7 hPa | 0 mm | - | 0 W/m² | - |
| 1777194031 | 20.56° C | 49% | 1005.6 hPa | 0 mm | - | 0 W/m² | - |
| 1777193371 | 20.56° C | 52% | 1005.6 hPa | 0 mm | - | 0 W/m² | - |
| 1777192710 | 21.11° C | 51% | 1005.5 hPa | 0 mm | - | 0 W/m² | - |
| 1777192050 | 20.56° C | 53% | 1005.4 hPa | 0 mm | - | 0 W/m² | - |
| 1777191389 | 20.56° C | 53% | 1005.4 hPa | 0 mm | - | 0 W/m² | - |
| 1777190728 | 21.67° C | 53% | 1005.4 hPa | 0 mm | - | 0 W/m² | - |
| 1777190068 | 21.67° C | 54% | 1005.5 hPa | 0 mm | - | 0 W/m² | - |
| 1777189407 | 21.11° C | 55% | 1005.4 hPa | 0 mm | - | 0 W/m² | - |
| 1777188746 | 21.67° C | 55% | 1005.5 hPa | 0 mm | - | 0 W/m² | - |
| 1777188118 | 22.22° C | 56% | 1005.5 hPa | 0 mm | - | 0 W/m² | - |
| 1777188086 | 22.22° C | 56% | 1005.5 hPa | 0 mm | - | 0 W/m² | - |
| 1777187425 | 22.22° C | 56% | 1005.5 hPa | 0 mm | - | 0 W/m² | - |
| 1777186765 | 22.22° C | 55% | 1005.6 hPa | 0 mm | - | 0 W/m² | - |
| 1777186104 | 22.22° C | 53% | 1005.7 hPa | 0 mm | - | 0 W/m² | - |
| 1777185443 | 22.78° C | 52% | 1005.7 hPa | 0 mm | - | 0 W/m² | - |
* Rain latest hour (hover to see other rain measurements)
** Current wind speed in m/s (hover to see current wind gust speed)